Time;durP1;ratioP1;P1;durP2;ratioP2;P2;SDS_P1;SDS_P2;PMS_P1;PMS_P2;Temp;Humidity;BMP_temperature;BMP_pressure;BME280_temperature;BME280_humidity;BME280_pressure;Samples;Min_cycle;Max_cycle;Signal;HPM_P1;HPM_P2
2022/11/14 00:00:54;;;;;;;25.70;16.40;;;12.10;46.50;;;;;;5033030;28;20261;-45
2022/11/14 00:03:20;;;;;;;19.13;13.70;;;12.10;46.50;;;;;;5032842;28;20205;-44
2022/11/14 00:05:46;;;;;;;21.63;16.53;;;12.10;46.30;;;;;;5032246;28;20162;-44
2022/11/14 00:08:17;;;;;;;16.63;13.85;;;12.10;46.20;;;;;;5032819;28;20712;-44
2022/11/14 00:10:48;;;;;;;18.65;12.77;;;12.20;46.10;;;;;;5032571;28;20185;-44
2022/11/14 00:13:14;;;;;;;21.80;14.00;;;12.20;46.00;;;;;;5032548;28;20221;-43
2022/11/14 00:15:40;;;;;;;18.83;14.27;;;12.10;46.00;;;;;;5031878;28;20198;-44
2022/11/14 00:18:07;;;;;;;23.00;17.03;;;12.10;46.10;;;;;;5032891;28;20190;-43
2022/11/14 00:20:32;;;;;;;22.20;14.13;;;12.10;46.30;;;;;;5032433;28;20401;-44
2022/11/14 00:22:58;;;;;;;22.20;14.87;;;12.10;46.20;;;;;;5032508;28;20174;-44
2022/11/14 00:25:24;;;;;;;18.43;14.07;;;12.10;46.20;;;;;;5032364;28;20396;-44
2022/11/14 00:27:50;;;;;;;18.00;13.13;;;12.10;46.10;;;;;;5031940;28;20169;-43
2022/11/14 00:30:16;;;;;;;19.53;14.67;;;12.20;46.10;;;;;;5032330;28;20193;-44
2022/11/14 00:32:41;;;;;;;18.60;13.87;;;12.10;46.00;;;;;;5032544;28;20418;-43
2022/11/14 00:35:10;;;;;;;17.47;14.60;;;12.10;46.00;;;;;;5032149;28;20596;-44
2022/11/14 00:37:36;;;;;;;19.45;13.95;;;12.10;46.10;;;;;;5031654;28;20170;-44
2022/11/14 00:40:03;;;;;;;20.07;15.13;;;12.10;46.20;;;;;;5032164;28;20192;-44
2022/11/14 00:42:28;;;;;;;18.50;15.07;;;12.10;46.10;;;;;;5031710;28;20430;-44
2022/11/14 00:44:54;;;;;;;21.70;15.00;;;12.10;46.20;;;;;;5032185;28;20204;-44
2022/11/14 00:47:20;;;;;;;24.27;15.60;;;12.00;46.20;;;;;;5031793;28;20188;-44
2022/11/14 00:49:46;;;;;;;19.88;14.88;;;12.00;46.20;;;;;;5031963;28;20285;-44
2022/11/14 00:52:12;;;;;;;23.83;15.73;;;12.00;46.10;;;;;;5032103;28;20253;-43
2022/11/14 00:54:37;;;;;;;21.77;15.07;;;12.00;46.30;;;;;;5032009;28;20448;-44
2022/11/14 00:57:03;;;;;;;20.30;12.70;;;12.00;46.30;;;;;;5031504;28;20648;-44
2022/11/14 00:59:29;;;;;;;24.37;14.87;;;12.00;46.40;;;;;;5032151;28;20766;-44
2022/11/14 01:01:55;;;;;;;22.63;14.80;;;12.00;46.40;;;;;;5032055;28;20765;-43
2022/11/14 01:04:20;;;;;;;18.90;14.33;;;12.00;46.50;;;;;;5031964;28;20625;-44
2022/11/14 01:06:46;;;;;;;20.23;14.97;;;11.90;46.50;;;;;;5031360;28;20181;-44
2022/11/14 01:09:12;;;;;;;19.90;14.07;;;11.90;46.50;;;;;;5032177;28;20200;-45
2022/11/14 01:11:38;;;;;;;24.00;14.50;;;11.90;46.50;;;;;;5032021;28;20639;-44
2022/11/14 01:14:07;;;;;;;20.27;13.60;;;12.00;46.30;;;;;;5030555;28;20746;-44
2022/11/14 01:16:32;;;;;;;19.83;13.90;;;11.90;46.50;;;;;;5031373;28;20400;-44
2022/11/14 01:18:58;;;;;;;19.97;15.37;;;12.00;46.50;;;;;;5031913;28;20554;-44
2022/11/14 01:21:24;;;;;;;21.23;13.27;;;11.90;46.50;;;;;;5031884;28;20166;-44
2022/11/14 01:23:50;;;;;;;19.90;12.73;;;12.00;46.40;;;;;;5031763;28;20197;-43
2022/11/14 01:26:15;;;;;;;17.90;13.53;;;12.00;46.40;;;;;;5031359;28;20170;-44
2022/11/14 01:28:41;;;;;;;18.57;12.13;;;12.00;46.30;;;;;;5031444;28;20216;-45
2022/11/14 01:31:09;;;;;;;20.97;13.70;;;12.00;46.40;;;;;;5030533;28;20174;-44
2022/11/14 01:33:35;;;;;;;17.88;12.68;;;12.00;46.30;;;;;;5032045;28;20247;-43
2022/11/14 01:36:00;;;;;;;20.23;13.60;;;12.00;46.30;;;;;;5031173;28;20174;-44
2022/11/14 01:38:26;;;;;;;19.70;13.83;;;12.00;46.30;;;;;;5031596;28;20185;-44
2022/11/14 01:40:52;;;;;;;19.13;13.70;;;12.00;46.10;;;;;;5031756;28;20760;-44
2022/11/14 01:43:17;;;;;;;22.90;14.73;;;12.00;46.10;;;;;;5031736;28;20570;-44
2022/11/14 01:45:57;;;;;;;16.57;12.70;;;12.00;46.10;;;;;;5031338;28;20186;-43
2022/11/14 01:48:32;;;;;;;20.90;14.32;;;12.10;46.10;;;;;;5031764;28;20209;-44
2022/11/14 01:51:02;;;;;;;17.70;12.32;;;12.00;46.00;;;;;;5031611;28;20154;-43
2022/11/14 01:53:28;;;;;;;18.45;14.40;;;12.10;45.90;;;;;;5032122;28;20201;-44
2022/11/14 01:55:58;;;;;;;19.40;14.20;;;12.00;45.90;;;;;;5034831;28;20520;-44
2022/11/14 01:58:25;;;;;;;19.58;13.18;;;12.00;46.00;;;;;;5035097;28;20700;-44
2022/11/14 02:00:51;;;;;;;20.40;13.73;;;12.10;45.90;;;;;;5035208;28;20198;-43
2022/11/14 02:03:17;;;;;;;18.90;12.40;;;12.00;45.90;;;;;;5035394;28;20224;-43
2022/11/14 02:05:45;;;;;;;18.00;12.73;;;12.10;45.90;;;;;;5034409;28;20243;-44
2022/11/14 02:08:13;;;;;;;19.83;13.50;;;12.10;46.00;;;;;;5034760;28;20225;-44
2022/11/14 02:10:39;;;;;;;18.88;13.43;;;12.00;46.10;;;;;;5035231;28;20178;-43
2022/11/14 02:13:05;;;;;;;16.67;11.60;;;11.90;46.10;;;;;;5034747;28;20669;-44
2022/11/14 02:15:32;;;;;;;18.67;13.80;;;12.00;46.00;;;;;;5034433;28;20397;-44
2022/11/14 02:18:00;;;;;;;19.10;12.40;;;12.10;45.80;;;;;;5033452;28;20542;-44
2022/11/14 02:20:27;;;;;;;18.33;13.43;;;12.10;45.80;;;;;;5034706;28;20197;-44
2022/11/14 02:22:54;;;;;;;22.13;14.73;;;12.10;45.60;;;;;;5034775;28;20190;-45
2022/11/14 02:25:20;;;;;;;17.92;12.50;;;12.20;45.50;;;;;;5034798;28;20177;-44
2022/11/14 02:27:46;;;;;;;16.77;12.27;;;12.20;45.20;;;;;;5033810;28;20177;-44
2022/11/14 02:30:15;;;;;;;17.87;13.80;;;12.20;45.30;;;;;;5034676;28;20162;-44
2022/11/14 02:32:41;;;;;;;15.68;11.88;;;12.20;45.30;;;;;;5034466;28;20805;-43
2022/11/14 02:35:07;;;;;;;19.53;14.20;;;12.10;45.20;;;;;;5034304;28;20244;-44
2022/11/14 02:37:33;;;;;;;18.55;13.38;;;12.20;45.30;;;;;;5034123;28;20554;-43
2022/11/14 02:39:59;;;;;;;13.97;10.60;;;12.20;45.20;;;;;;5034242;28;20197;-44
2022/11/14 02:42:24;;;;;;;15.83;11.70;;;12.30;45.10;;;;;;5034597;28;20170;-43
2022/11/14 02:44:50;;;;;;;18.90;12.90;;;12.30;45.00;;;;;;5034424;28;20702;-44
2022/11/14 02:47:16;;;;;;;16.13;11.80;;;12.30;45.10;;;;;;5033907;28;20169;-43
2022/11/14 02:49:41;;;;;;;17.83;12.40;;;12.30;44.90;;;;;;5034052;28;20202;-42
2022/11/14 02:52:07;;;;;;;19.23;12.50;;;12.20;44.90;;;;;;5034119;28;20174;-44
2022/11/14 02:54:33;;;;;;;20.33;12.67;;;12.20;45.00;;;;;;5034096;28;20233;-44
2022/11/14 02:56:59;;;;;;;16.40;11.50;;;12.20;45.00;;;;;;5033560;28;20193;-43
2022/11/14 02:59:24;;;;;;;16.60;11.60;;;12.10;45.20;;;;;;5034031;28;20648;-44
2022/11/14 03:01:50;;;;;;;18.50;13.80;;;12.20;45.40;;;;;;5033928;28;20561;-44
2022/11/14 03:04:16;;;;;;;18.53;12.73;;;12.10;45.50;;;;;;5033911;28;20174;-44
2022/11/14 03:06:42;;;;;;;18.07;11.93;;;12.10;45.50;;;;;;5032867;28;20244;-44
2022/11/14 03:09:07;;;;;;;17.20;12.47;;;12.10;45.40;;;;;;5033765;28;20221;-44
2022/11/14 03:11:33;;;;;;;14.10;11.13;;;12.10;45.30;;;;;;5034009;28;20185;-44
2022/11/14 03:13:59;;;;;;;18.80;12.70;;;12.20;45.20;;;;;;5032378;28;20196;-44
2022/11/14 03:16:25;;;;;;;16.30;10.80;;;12.10;45.40;;;;;;5033066;28;20177;-44
2022/11/14 03:18:51;;;;;;;19.03;13.70;;;12.10;45.30;;;;;;5033597;28;20201;-43
2022/11/14 03:21:19;;;;;;;17.97;11.80;;;12.20;45.30;;;;;;5033779;28;20178;-44
2022/11/14 03:23:45;;;;;;;16.45;11.65;;;12.10;45.40;;;;;;5033573;28;20415;-45
2022/11/14 03:26:12;;;;;;;18.45;12.32;;;12.20;45.30;;;;;;5032800;28;20557;-44
2022/11/14 03:28:39;;;;;;;14.90;11.75;;;12.10;45.20;;;;;;5033430;28;20608;-44
2022/11/14 03:31:05;;;;;;;20.00;13.20;;;12.10;45.20;;;;;;5033441;28;20182;-44
2022/11/14 03:33:32;;;;;;;17.75;11.75;;;12.20;45.10;;;;;;5033364;28;20193;-45
2022/11/14 03:35:58;;;;;;;19.20;13.52;;;12.20;45.20;;;;;;5033027;28;20261;-44
2022/11/14 03:38:24;;;;;;;16.93;12.90;;;12.10;45.20;;;;;;5033201;28;20228;-44
2022/11/14 03:40:50;;;;;;;18.43;13.70;;;12.20;45.30;;;;;;5033713;28;20170;-45
2022/11/14 03:43:17;;;;;;;17.85;13.35;;;12.10;45.30;;;;;;5033598;28;20746;-45
2022/11/14 03:45:43;;;;;;;18.75;13.20;;;12.20;45.30;;;;;;5033391;28;20661;-44
2022/11/14 03:48:09;;;;;;;14.70;11.93;;;12.20;45.30;;;;;;5034217;28;20236;-44
2022/11/14 03:50:34;;;;;;;25.83;13.20;;;12.10;45.30;;;;;;5033617;28;20257;-44
2022/11/14 03:53:00;;;;;;;18.57;13.37;;;12.10;45.50;;;;;;5033177;28;20649;-43
2022/11/14 03:55:26;;;;;;;18.10;13.53;;;12.20;45.50;;;;;;5032858;28;20162;-44
2022/11/14 03:57:52;;;;;;;19.13;13.48;;;12.20;45.40;;;;;;5032453;28;20533;-44
2022/11/14 04:00:18;;;;;;;23.07;14.33;;;12.20;45.50;;;;;;5032924;28;20176;-44
2022/11/14 04:02:44;;;;;;;18.40;13.18;;;12.20;45.50;;;;;;5032790;28;20176;-44
2022/11/14 04:05:10;;;;;;;22.70;13.57;;;12.20;45.40;;;;;;5032838;28;20197;-45
2022/11/14 04:07:36;;;;;;;18.00;13.27;;;12.20;45.40;;;;;;5032167;28;20424;-45
2022/11/14 04:10:01;;;;;;;16.47;12.07;;;12.30;45.30;;;;;;5032645;28;20197;-44
2022/11/14 04:12:27;;;;;;;15.60;12.57;;;12.30;45.20;;;;;;5032747;28;20444;-44
2022/11/14 04:14:53;;;;;;;26.43;13.80;;;12.40;45.10;;;;;;5032518;28;20460;-44
2022/11/14 04:17:18;;;;;;;17.30;13.50;;;12.40;45.10;;;;;;5031113;28;20200;-44
2022/11/14 04:19:44;;;;;;;16.10;12.23;;;12.40;45.00;;;;;;5032462;28;20692;-43
2022/11/14 04:22:10;;;;;;;20.00;12.90;;;12.40;45.10;;;;;;5032510;28;20170;-44
2022/11/14 04:24:36;;;;;;;15.67;12.23;;;12.40;45.10;;;;;;5032513;28;20268;-44
2022/11/14 04:27:01;;;;;;;16.90;12.50;;;12.40;45.20;;;;;;5031942;28;20244;-44
2022/11/14 04:29:27;;;;;;;15.53;11.23;;;12.40;45.10;;;;;;5032104;28;20201;-44
2022/11/14 04:31:53;;;;;;;19.87;14.27;;;12.40;45.00;;;;;;5032362;28;20182;-45
2022/11/14 04:34:18;;;;;;;17.47;12.60;;;12.40;45.10;;;;;;5032368;28;20661;-45
2022/11/14 04:36:44;;;;;;;16.83;11.67;;;12.40;45.00;;;;;;5031706;28;20174;-44
2022/11/14 04:39:10;;;;;;;17.73;12.50;;;12.40;45.00;;;;;;5032185;28;20436;-43
2022/11/14 04:41:35;;;;;;;17.60;12.43;;;12.40;45.00;;;;;;5032492;28;20541;-43
2022/11/14 04:44:01;;;;;;;17.10;13.53;;;12.40;45.00;;;;;;5032322;28;20182;-44
2022/11/14 04:46:27;;;;;;;16.80;12.77;;;12.40;45.00;;;;;;5031530;28;20688;-44
2022/11/14 04:48:53;;;;;;;22.70;12.80;;;12.40;45.30;;;;;;5030879;28;20206;-44
2022/11/14 04:51:19;;;;;;;19.57;12.73;;;12.30;45.40;;;;;;5032032;28;20421;-44
2022/11/14 04:53:44;;;;;;;17.57;13.20;;;12.30;45.30;;;;;;5031985;28;20297;-44
2022/11/14 04:56:10;;;;;;;17.07;12.47;;;12.30;45.30;;;;;;5031603;28;20413;-42
2022/11/14 04:58:36;;;;;;;17.23;12.30;;;12.30;45.20;;;;;;5031989;28;20216;-45
2022/11/14 05:01:09;;;;;;;18.43;14.03;;;12.30;45.40;;;;;;5031898;28;20542;-43
2022/11/14 05:03:34;;;;;;;20.58;12.27;;;12.30;45.40;;;;;;5031923;28;20220;-43
2022/11/14 05:06:00;;;;;;;16.40;13.70;;;12.30;45.60;;;;;;5031400;28;20666;-44
2022/11/14 05:08:26;;;;;;;19.05;13.25;;;12.20;45.40;;;;;;5030725;28;20932;-44
2022/11/14 05:10:52;;;;;;;18.17;11.63;;;12.20;46.00;;;;;;5032001;28;20265;-44
2022/11/14 05:13:18;;;;;;;17.47;12.70;;;12.30;45.60;;;;;;5031797;28;20193;-44
2022/11/14 05:15:44;;;;;;;45.77;14.83;;;12.20;45.60;;;;;;5031242;28;20412;-44
2022/11/14 05:18:09;;;;;;;18.27;13.70;;;12.30;45.70;;;;;;5031828;28;20558;-44
2022/11/14 05:20:35;;;;;;;20.97;14.67;;;12.30;45.70;;;;;;5032084;28;20178;-44
2022/11/14 05:23:01;;;;;;;16.43;12.40;;;12.30;45.60;;;;;;5031887;28;20173;-44
2022/11/14 05:25:26;;;;;;;22.23;13.33;;;12.30;45.50;;;;;;5031627;28;20576;-44
2022/11/14 05:27:52;;;;;;;18.30;12.60;;;12.40;45.40;;;;;;5031055;28;20184;-44
2022/11/14 05:30:18;;;;;;;16.53;12.80;;;12.40;45.40;;;;;;5035190;28;20161;-45
2022/11/14 05:32:44;;;;;;;22.17;12.65;;;12.40;45.50;;;;;;5035598;28;20173;-44
2022/11/14 05:35:10;;;;;;;19.40;12.67;;;12.40;45.50;;;;;;5035472;28;20206;-44
2022/11/14 05:37:36;;;;;;;20.93;13.60;;;12.40;45.50;;;;;;5035121;28;20162;-44
2022/11/14 05:40:03;;;;;;;18.40;13.53;;;12.40;45.50;;;;;;5035654;28;20428;-45
2022/11/14 05:42:28;;;;;;;21.65;13.55;;;12.40;45.40;;;;;;5035547;28;20437;-44
2022/11/14 05:44:54;;;;;;;17.00;11.60;;;12.40;45.40;;;;;;5035376;28;20205;-45
2022/11/14 05:47:20;;;;;;;19.97;12.73;;;12.40;45.40;;;;;;5034791;28;20409;-43
2022/11/14 05:49:46;;;;;;;16.50;12.53;;;12.40;45.60;;;;;;5035336;28;20182;-44
2022/11/14 05:52:12;;;;;;;19.40;14.00;;;12.30;45.70;;;;;;5035188;28;20178;-44
2022/11/14 05:54:37;;;;;;;18.92;13.15;;;12.30;45.60;;;;;;5035151;28;20607;-43
2022/11/14 05:57:03;;;;;;;21.27;13.90;;;12.30;45.60;;;;;;5034259;28;20292;-44
2022/11/14 05:59:29;;;;;;;20.70;13.97;;;12.30;45.60;;;;;;5034649;28;20428;-44
2022/11/14 06:01:55;;;;;;;22.40;12.10;;;12.40;45.60;;;;;;5035005;28;20759;-43
2022/11/14 06:04:22;;;;;;;18.43;13.87;;;12.30;45.70;;;;;;5034912;28;20416;-44
2022/11/14 06:06:47;;;;;;;19.10;13.68;;;12.30;45.80;;;;;;5034519;28;20412;-44
2022/11/14 06:09:13;;;;;;;18.80;12.90;;;12.30;45.70;;;;;;5035013;28;20213;-44
2022/11/14 06:11:39;;;;;;;18.97;12.87;;;12.30;45.90;;;;;;5034826;28;20178;-43
2022/11/14 06:14:05;;;;;;;23.20;13.67;;;12.30;46.00;;;;;;5034581;28;20447;-45
2022/11/14 06:16:31;;;;;;;23.65;14.30;;;12.30;46.00;;;;;;5034219;28;20642;-44
2022/11/14 06:18:56;;;;;;;17.30;13.37;;;12.30;46.00;;;;;;5034572;28;20204;-43
2022/11/14 06:21:24;;;;;;;17.77;13.87;;;12.40;45.80;;;;;;5034592;28;20408;-44
2022/11/14 06:23:50;;;;;;;20.17;14.15;;;12.40;45.80;;;;;;5034639;28;20257;-44
2022/11/14 06:26:30;;;;;;;18.40;13.00;;;12.30;45.80;;;;;;5034041;28;20264;-44
2022/11/14 06:28:57;;;;;;;19.65;13.68;;;12.30;45.90;;;;;;5034476;28;20686;-44
2022/11/14 06:31:24;;;;;;;19.27;15.05;;;12.20;46.10;;;;;;5033316;28;20201;-44
2022/11/14 06:33:50;;;;;;;22.27;14.20;;;12.30;46.10;;;;;;5034622;28;20201;-43
2022/11/14 06:36:16;;;;;;;23.90;14.20;;;12.30;46.30;;;;;;5033884;28;20166;-44
2022/11/14 06:38:42;;;;;;;24.90;15.63;;;12.30;46.20;;;;;;5034582;28;20599;-44
2022/11/14 06:41:16;;;;;;;22.38;14.02;;;12.30;46.20;;;;;;5033374;28;20174;-44
2022/11/14 06:43:44;;;;;;;20.75;14.70;;;12.30;46.30;;;;;;5034416;28;20173;-43
2022/11/14 06:46:12;;;;;;;21.08;14.77;;;12.40;46.20;;;;;;5034118;28;20181;-44
2022/11/14 06:48:39;;;;;;;22.85;16.42;;;12.40;45.90;;;;;;5034498;28;20193;-44
2022/11/14 06:51:05;;;;;;;22.60;16.45;;;12.40;45.80;;;;;;5034353;28;20261;-44
2022/11/14 06:53:34;;;;;;;22.20;14.88;;;12.40;45.80;;;;;;5034050;28;20205;-44
2022/11/14 06:56:04;;;;;;;18.48;13.93;;;12.40;45.80;;;;;;5033645;28;20177;-44
2022/11/14 06:58:33;;;;;;;21.42;15.45;;;12.40;45.80;;;;;;5033978;28;20605;-44
2022/11/14 07:01:06;;;;;;;21.08;16.60;;;12.40;45.90;;;;;;5034235;28;20178;-44
2022/11/14 07:03:32;;;;;;;18.42;14.98;;;12.50;45.90;;;;;;5034085;28;20530;-44
2022/11/14 07:06:01;;;;;;;20.13;14.93;;;12.50;45.90;;;;;;5033290;28;20231;-44
2022/11/14 07:08:28;;;;;;;22.55;16.20;;;12.50;46.10;;;;;;5033521;28;20653;-44
2022/11/14 07:10:53;;;;;;;24.92;16.95;;;12.60;45.90;;;;;;5032479;28;20236;-43
2022/11/14 07:13:19;;;;;;;21.63;15.13;;;12.60;45.80;;;;;;5033716;28;20670;-43
2022/11/14 07:15:52;;;;;;;23.23;15.20;;;12.60;45.70;;;;;;5033142;28;20193;-44
2022/11/14 07:18:18;;;;;;;20.98;15.68;;;12.60;45.60;;;;;;5033547;28;20188;-44
2022/11/14 07:20:44;;;;;;;20.60;16.30;;;12.70;45.70;;;;;;5033550;28;20658;-45
2022/11/14 07:23:10;;;;;;;26.63;16.70;;;12.70;45.60;;;;;;5033913;28;20182;-44
2022/11/14 07:25:36;;;;;;;29.50;16.57;;;12.70;45.60;;;;;;5033203;28;20498;-44
2022/11/14 07:28:02;;;;;;;24.13;17.63;;;12.70;45.50;;;;;;5032017;28;20441;-44
2022/11/14 07:30:27;;;;;;;25.40;15.90;;;12.70;45.60;;;;;;5033614;28;20176;-44
2022/11/14 07:32:55;;;;;;;24.77;16.70;;;12.70;45.50;;;;;;5033483;28;20180;-44
2022/11/14 07:35:21;;;;;;;26.33;18.42;;;12.70;45.50;;;;;;5033249;28;20455;-44
2022/11/14 07:37:46;;;;;;;22.58;16.23;;;12.80;45.40;;;;;;5032890;28;20170;-44
2022/11/14 07:40:12;;;;;;;20.70;15.90;;;12.80;45.40;;;;;;5033299;28;20192;-44
2022/11/14 07:42:38;;;;;;;20.97;15.77;;;12.90;45.40;;;;;;5033463;28;20202;-43
2022/11/14 07:45:04;;;;;;;24.90;16.20;;;12.90;45.30;;;;;;5033188;28;20232;-44
2022/11/14 07:47:30;;;;;;;25.20;16.50;;;12.90;45.30;;;;;;5032630;28;20264;-44
2022/11/14 07:49:55;;;;;;;27.77;16.97;;;12.90;45.30;;;;;;5033018;28;20280;-44
2022/11/14 07:52:21;;;;;;;22.87;16.23;;;12.90;45.40;;;;;;5033007;28;20197;-44
2022/11/14 07:54:47;;;;;;;26.67;19.07;;;12.90;45.40;;;;;;5032884;28;20313;-44
2022/11/14 07:57:13;;;;;;;22.33;16.90;;;13.00;45.40;;;;;;5067115;23;20498;-39
2022/11/14 07:59:39;;;;;;;26.17;17.13;;;13.00;45.30;;;;;;5040097;28;20177;-42
2022/11/14 08:02:05;;;;;;;23.77;16.80;;;13.00;45.30;;;;;;5032759;28;20177;-42
2022/11/14 08:04:30;;;;;;;24.52;17.63;;;13.10;45.20;;;;;;5032799;28;20166;-42
2022/11/14 08:06:56;;;;;;;22.90;17.17;;;13.10;45.40;;;;;;5031989;28;20197;-42
2022/11/14 08:09:22;;;;;;;27.97;18.30;;;13.20;45.30;;;;;;5032763;28;20252;-42
2022/11/14 08:11:48;;;;;;;25.23;16.53;;;13.30;45.10;;;;;;5032703;28;20286;-42
2022/11/14 08:14:14;;;;;;;23.83;16.67;;;13.50;45.00;;;;;;5032529;28;20217;-42
2022/11/14 08:16:40;;;;;;;23.52;17.60;;;13.70;44.60;;;;;;5031842;28;20432;-42
2022/11/14 08:19:07;;;;;;;22.47;16.40;;;14.00;44.20;;;;;;5032648;28;20236;-42
2022/11/14 08:21:32;;;;;;;22.08;16.88;;;14.50;42.70;;;;;;5032496;28;20281;-40
2022/11/14 08:23:58;;;;;;;23.40;16.67;;;15.00;42.10;;;;;;5032357;28;20197;-43
2022/11/14 08:26:24;;;;;;;20.57;16.60;;;15.40;40.90;;;;;;5031677;28;20252;-43
2022/11/14 08:28:53;;;;;;;23.50;16.40;;;15.60;39.90;;;;;;5032416;28;20178;-42
2022/11/14 08:31:19;;;;;;;20.65;15.68;;;15.50;39.90;;;;;;5032197;28;20629;-42
2022/11/14 08:33:45;;;;;;;20.05;15.60;;;15.50;40.40;;;;;;5032188;28;20229;-42
2022/11/14 08:36:11;;;;;;;22.83;15.23;;;15.50;39.70;;;;;;5031498;28;20190;-42
2022/11/14 08:38:37;;;;;;;21.30;17.27;;;15.70;39.70;;;;;;5032166;28;20170;-42
2022/11/14 08:41:03;;;;;;;19.33;15.20;;;16.20;39.50;;;;;;5032223;28;20173;-43
2022/11/14 08:43:30;;;;;;;21.77;14.88;;;16.50;39.00;;;;;;5032233;28;20252;-42
2022/11/14 08:45:58;;;;;;;21.45;16.80;;;16.40;38.50;;;;;;5031454;28;20198;-40
2022/11/14 08:48:23;;;;;;;20.67;15.05;;;16.90;38.10;;;;;;5032347;28;20200;-43
2022/11/14 08:50:49;;;;;;;23.80;16.30;;;17.40;37.60;;;;;;5032356;28;20626;-42
2022/11/14 08:53:15;;;;;;;17.07;14.20;;;17.90;37.00;;;;;;5031994;28;20271;-43
2022/11/14 08:55:45;;;;;;;19.80;16.00;;;18.20;35.80;;;;;;5031228;28;20646;-42
2022/11/14 08:58:11;;;;;;;19.00;14.65;;;18.20;34.60;;;;;;5031951;28;20249;-43
2022/11/14 09:00:36;;;;;;;21.80;15.77;;;18.10;34.60;;;;;;5031932;28;20249;-42
2022/11/14 09:03:14;;;;;;;16.30;13.53;;;17.80;35.30;;;;;;5032025;28;20249;-42
2022/11/14 09:05:41;;;;;;;19.60;14.50;;;17.70;35.30;;;;;;5035515;28;20510;-42
2022/11/14 09:08:07;;;;;;;20.38;14.88;;;17.50;36.10;;;;;;5036108;28;20177;-42
2022/11/14 09:10:33;;;;;;;18.00;14.07;;;17.50;36.60;;;;;;5035973;28;20169;-42
2022/11/14 09:13:00;;;;;;;24.83;14.60;;;17.30;36.50;;;;;;5035894;28;20397;-43
2022/11/14 09:15:27;;;;;;;20.30;13.90;;;17.10;36.40;;;;;;5035952;28;20296;-42
2022/11/14 09:17:55;;;;;;;18.30;14.05;;;16.90;37.00;;;;;;5035283;28;20188;-43
2022/11/14 09:20:22;;;;;;;20.35;15.20;;;16.70;37.20;;;;;;5035912;28;20178;-42
2022/11/14 09:22:49;;;;;;;23.15;14.90;;;16.50;37.80;;;;;;5035743;28;20629;-42
2022/11/14 09:25:14;;;;;;;20.80;15.82;;;16.30;38.10;;;;;;5035815;28;20236;-42
2022/11/14 09:27:40;;;;;;;20.40;14.47;;;16.30;38.60;;;;;;5035112;28;20193;-43
2022/11/14 09:30:06;;;;;;;21.03;16.30;;;16.40;38.80;;;;;;5035657;28;20170;-42
2022/11/14 09:32:32;;;;;;;21.52;16.55;;;16.50;38.30;;;;;;5035718;28;20611;-42
2022/11/14 09:34:58;;;;;;;20.17;15.00;;;16.50;37.80;;;;;;5035495;28;20280;-41
2022/11/14 09:37:24;;;;;;;16.67;13.17;;;16.60;38.00;;;;;;5034843;28;20178;-42
2022/11/14 09:39:49;;;;;;;18.93;14.60;;;16.70;37.80;;;;;;5035450;28;20638;-42
2022/11/14 09:42:15;;;;;;;17.17;13.13;;;16.80;37.90;;;;;;5035351;28;20201;-43
2022/11/14 09:44:54;;;;;;;17.70;14.30;;;16.90;37.20;;;;;;5035379;28;20253;-40
2022/11/14 09:47:24;;;;;;;20.10;14.68;;;16.90;37.60;;;;;;5034934;28;20288;-42
2022/11/14 09:49:55;;;;;;;20.60;13.82;;;16.90;37.70;;;;;;5035453;28;20163;-41
2022/11/14 09:52:35;;;;;;;22.33;15.45;;;16.80;37.50;;;;;;5035147;28;20174;-42
2022/11/14 09:55:18;;;;;;;18.33;13.60;;;17.10;37.30;;;;;;5035388;28;20292;-42
2022/11/14 09:57:45;;;;;;;19.55;15.27;;;17.70;36.20;;;;;;5034460;28;20300;-42
2022/11/14 10:00:15;;;;;;;18.13;14.07;;;18.00;35.20;;;;;;5035168;28;20177;-42
2022/11/14 10:03:10;;;;;;;18.23;12.63;;;18.40;35.10;;;;;;5035063;28;20162;-42
2022/11/14 10:05:42;;;;;;;24.58;15.85;;;18.30;34.10;;;;;;5034298;28;20277;-42
2022/11/14 10:08:42;;;;;;;18.55;14.30;;;18.10;35.00;;;;;;5034965;28;20208;-42
2022/11/14 10:11:59;;;;;;;19.13;15.02;;;18.30;34.60;;;;;;5034603;28;20180;-43
2022/11/14 10:14:40;;;;;;;19.17;15.40;;;18.40;33.70;;;;;;4990488;28;20260;-42
2022/11/14 10:17:19;;;;;;;24.25;16.92;;;18.00;34.40;;;;;;5033342;28;20558;-43
2022/11/14 10:20:14;;;;;;;20.02;16.58;;;17.60;35.20;;;;;;5034745;28;20316;-43
2022/11/14 10:23:07;;;;;;;20.70;14.85;;;17.50;36.20;;;;;;5005876;28;20182;-42
2022/11/14 10:25:55;;;;;;;19.90;14.00;;;17.30;35.80;;;;;;5033918;28;20231;-43
2022/11/14 10:28:33;;;;;;;17.80;14.80;;;17.20;35.90;;;;;;5034667;28;20186;-42
2022/11/14 10:31:11;;;;;;;20.23;14.75;;;17.00;36.50;;;;;;5034606;28;20180;-42
2022/11/14 10:34:16;;;;;;;23.92;15.55;;;16.70;37.20;;;;;;5034411;28;20244;-42
2022/11/14 10:37:16;;;;;;;19.48;14.30;;;16.70;36.70;;;;;;5033820;28;20213;-41
2022/11/14 10:39:48;;;;;;;18.45;13.35;;;16.70;36.80;;;;;;5034321;28;20717;-42
2022/11/14 10:42:29;;;;;;;15.52;12.40;;;16.60;37.40;;;;;;5034405;28;20270;-42
2022/11/14 10:45:10;;;;;;;22.00;14.48;;;16.60;36.80;;;;;;5034531;28;20178;-43
2022/11/14 10:47:42;;;;;;;18.88;14.55;;;17.00;37.30;;;;;;5033649;28;20197;-43
2022/11/14 10:50:19;;;;;;;20.73;15.05;;;17.30;36.70;;;;;;5034188;28;20178;-42
2022/11/14 10:52:45;;;;;;;19.08;14.50;;;17.30;35.80;;;;;;5034080;28;20181;-42
2022/11/14 10:55:18;;;;;;;18.90;14.32;;;17.10;36.30;;;;;;5034010;28;20201;-42
2022/11/14 10:57:47;;;;;;;19.65;12.57;;;17.10;36.40;;;;;;5033274;28;20681;-42
2022/11/14 11:00:19;;;;;;;19.50;13.25;;;17.10;36.90;;;;;;5033966;28;20213;-42
2022/11/14 11:02:56;;;;;;;16.77;13.00;;;17.00;36.60;;;;;;5034009;28;20253;-42
2022/11/14 11:05:28;;;;;;;17.55;13.70;;;16.90;36.50;;;;;;5033758;28;20641;-42
2022/11/14 11:13:40;;;;;;;18.50;13.30;;;16.60;37.30;;;;;;5033950;28;20649;-43
2022/11/14 11:16:10;;;;;;;19.75;13.68;;;16.70;37.30;;;;;;5032958;28;20229;-42
2022/11/14 11:18:36;;;;;;;23.63;13.50;;;16.70;37.10;;;;;;5033663;28;20158;-42
2022/11/14 11:21:22;;;;;;;22.97;14.87;;;16.60;37.00;;;;;;5033557;28;20192;-42
2022/11/14 11:23:55;;;;;;;19.67;13.32;;;16.60;37.50;;;;;;5033561;28;20407;-42
2022/11/14 11:26:29;;;;;;;18.73;13.07;;;16.60;37.30;;;;;;5032366;28;20198;-42
2022/11/14 11:29:02;;;;;;;15.75;12.30;;;16.60;37.20;;;;;;5033398;28;20258;-41
2022/11/14 11:31:47;;;;;;;18.13;14.13;;;16.70;37.20;;;;;;5033364;28;20249;-42
2022/11/14 11:34:13;;;;;;;15.35;13.32;;;16.70;37.80;;;;;;5033344;28;20222;-42
2022/11/14 11:36:48;;;;;;;15.63;10.97;;;16.90;37.50;;;;;;5032472;28;20240;-42
2022/11/14 11:39:25;;;;;;;15.77;13.00;;;17.10;36.80;;;;;;5033500;28;20162;-42
2022/11/14 11:41:53;;;;;;;16.02;13.10;;;17.40;37.10;;;;;;5033109;28;20633;-42
2022/11/14 11:44:20;;;;;;;16.45;13.10;;;17.80;36.20;;;;;;5033146;28;20170;-43
2022/11/14 11:47:00;;;;;;;19.05;13.18;;;18.10;35.50;;;;;;5032362;28;20201;-42
2022/11/14 11:49:29;;;;;;;16.58;12.35;;;18.10;34.90;;;;;;5032994;28;20170;-42
2022/11/14 11:52:00;;;;;;;18.40;13.20;;;18.20;34.60;;;;;;5033019;28;20564;-42
2022/11/14 11:54:32;;;;;;;18.20;12.00;;;18.40;34.90;;;;;;5033055;28;20214;-42
2022/11/14 11:57:01;;;;;;;16.75;13.27;;;18.60;33.70;;;;;;5032186;28;20669;-43
2022/11/14 11:59:40;;;;;;;18.88;12.20;;;18.60;34.00;;;;;;5033014;28;20260;-42
2022/11/14 12:02:25;;;;;;;18.77;12.77;;;18.50;33.50;;;;;;5032859;28;20224;-43
2022/11/14 12:04:54;;;;;;;20.15;13.25;;;18.50;33.70;;;;;;5032765;28;20204;-41
2022/11/14 12:07:38;;;;;;;18.10;13.52;;;18.30;33.70;;;;;;5031881;28;20189;-40
2022/11/14 12:10:16;;;;;;;23.20;12.40;;;18.30;33.80;;;;;;5033135;28;20830;-43
2022/11/14 12:12:42;;;;;;;18.38;13.25;;;18.40;34.20;;;;;;5032689;28;20584;-43
2022/11/14 12:15:35;;;;;;;16.43;13.07;;;18.80;34.10;;;;;;5032426;28;20280;-43
2022/11/14 12:18:09;;;;;;;18.38;12.65;;;19.00;33.60;;;;;;5032610;28;20169;-43
2022/11/14 12:20:47;;;;;;;18.48;13.30;;;19.10;33.40;;;;;;5032808;28;20531;-43
2022/11/14 12:23:38;;;;;;;19.08;13.75;;;19.20;32.80;;;;;;5032498;28;20170;-43
2022/11/14 12:26:22;;;;;;;19.52;14.10;;;19.50;32.10;;;;;;5031799;28;20276;-43
2022/11/14 12:29:33;;;;;;;17.70;14.52;;;19.80;31.60;;;;;;5032316;28;20166;-42
2022/11/14 12:32:05;;;;;;;19.05;14.00;;;20.00;31.60;;;;;;4988166;28;20174;-43
2022/11/14 12:34:41;;;;;;;16.48;13.95;;;20.10;31.70;;;;;;5032315;28;20738;-43
2022/11/14 12:37:31;;;;;;;20.95;13.27;;;20.20;31.60;;;;;;5032023;28;20197;-43
2022/11/14 12:40:00;;;;;;;15.30;11.82;;;20.70;31.00;;;;;;5022313;28;20308;-43
2022/11/14 12:42:27;;;;;;;14.70;12.60;;;21.40;30.30;;;;;;5032477;28;20201;-43